Time;durP1;ratioP1;P1;durP2;ratioP2;P2;SDS_P1;SDS_P2;PMS_P1;PMS_P2;Temp;Humidity;BMP_temperature;BMP_pressure;BME280_temperature;BME280_humidity;BME280_pressure;Samples;Min_cycle;Max_cycle;Signal;HPM_P1;HPM_P2
2023/07/18 00:00:03;;;;;;;3.90;2.28;;;;;;;;;;636019;23;835;-75
2023/07/18 00:00:18;;;;;;;3.63;2.10;;;;;;;;;;636510;23;870;-75
2023/07/18 00:00:37;;;;;;;4.95;2.20;;;;;;;;;;637781;23;787;-75
2023/07/18 00:00:53;;;;;;;4.20;2.00;;;;;;;;;;633885;23;1405;-75
2023/07/18 00:01:08;;;;;;;3.50;2.17;;;;;;;;;;633102;23;1250;-75
2023/07/18 00:01:24;;;;;;;4.13;2.40;;;;;;;;;;632169;23;1032;-75
2023/07/18 00:01:45;;;;;;;5.03;2.50;;;;;;;;;;634999;23;842;-75
2023/07/18 00:02:03;;;;;;;4.07;2.40;;;;;;;;;;630758;23;1921;-75
2023/07/18 00:02:22;;;;;;;3.50;2.30;;;;;;;;;;630938;23;934;-74
2023/07/18 00:02:44;;;;;;;3.35;2.20;;;;;;;;;;628904;23;1622;-75
2023/07/18 00:03:00;;;;;;;3.47;2.20;;;;;;;;;;630615;23;1418;-74
2023/07/18 00:03:16;;;;;;;3.40;2.10;;;;;;;;;;630029;23;925;-75
2023/07/18 00:03:34;;;;;;;3.43;2.30;;;;;;;;;;630207;23;990;-75
2023/07/18 00:03:49;;;;;;;3.58;2.38;;;;;;;;;;630837;23;776;-75
2023/07/18 00:04:05;;;;;;;3.53;2.25;;;;;;;;;;633385;23;886;-75
2023/07/18 00:04:21;;;;;;;4.10;2.20;;;;;;;;;;631050;23;1322;-75
2023/07/18 00:04:37;;;;;;;4.20;2.40;;;;;;;;;;633604;23;1166;-75
2023/07/18 00:04:54;;;;;;;4.07;2.30;;;;;;;;;;634071;23;1040;-75
2023/07/18 00:05:13;;;;;;;4.25;2.10;;;;;;;;;;634418;23;870;-75
2023/07/18 00:05:28;;;;;;;3.47;2.00;;;;;;;;;;630197;23;1315;-74
2023/07/18 00:05:46;;;;;;;4.40;2.10;;;;;;;;;;627615;23;1190;-74
2023/07/18 00:06:03;;;;;;;4.45;2.28;;;;;;;;;;624420;23;1319;-75
2023/07/18 00:06:19;;;;;;;4.43;2.30;;;;;;;;;;627309;23;918;-75
2023/07/18 00:06:40;;;;;;;4.20;2.20;;;;;;;;;;630201;23;969;-75
2023/07/18 00:07:01;;;;;;;3.58;2.20;;;;;;;;;;626430;23;1529;-75
2023/07/18 00:07:20;;;;;;;4.00;2.25;;;;;;;;;;623735;23;1371;-75
2023/07/18 00:07:39;;;;;;;4.07;2.33;;;;;;;;;;629111;23;1002;-75
2023/07/18 00:07:54;;;;;;;4.22;2.40;;;;;;;;;;628644;23;1383;-74
2023/07/18 00:08:09;;;;;;;4.53;2.43;;;;;;;;;;629648;23;1329;-75
2023/07/18 00:08:36;;;;;;;4.40;2.35;;;;;;;;;;626093;23;1288;-75
2023/07/18 00:08:52;;;;;;;4.60;2.20;;;;;;;;;;623878;23;1239;-74
2023/07/18 00:09:07;;;;;;;4.37;2.10;;;;;;;;;;622457;23;1285;-74
2023/07/18 00:09:23;;;;;;;4.45;2.20;;;;;;;;;;626079;23;1172;-74
2023/07/18 00:09:39;;;;;;;3.80;2.30;;;;;;;;;;627122;23;919;-75
2023/07/18 00:09:55;;;;;;;5.22;2.50;;;;;;;;;;625933;23;863;-74
2023/07/18 00:10:18;;;;;;;5.07;2.40;;;;;;;;;;629602;23;1239;-75
2023/07/18 00:10:42;;;;;;;3.70;2.17;;;;;;;;;;629160;23;1339;-74
2023/07/18 00:11:03;;;;;;;2.90;2.10;;;;;;;;;;626582;23;1196;-75
2023/07/18 00:11:20;;;;;;;3.17;2.15;;;;;;;;;;624661;23;1289;-74
2023/07/18 00:11:36;;;;;;;3.88;2.30;;;;;;;;;;622364;23;1362;-75
2023/07/18 00:11:51;;;;;;;3.63;2.10;;;;;;;;;;621875;23;796;-75
2023/07/18 00:12:07;;;;;;;3.17;2.10;;;;;;;;;;622830;23;1145;-75
2023/07/18 00:12:23;;;;;;;3.38;2.10;;;;;;;;;;620206;23;1177;-75
2023/07/18 00:12:39;;;;;;;3.83;2.22;;;;;;;;;;620701;23;1335;-75
2023/07/18 00:12:55;;;;;;;4.07;2.30;;;;;;;;;;622394;23;1315;-74
2023/07/18 00:13:10;;;;;;;3.78;2.10;;;;;;;;;;622367;23;1156;-74
2023/07/18 00:13:37;;;;;;;3.87;2.20;;;;;;;;;;624171;23;1280;-74
2023/07/18 00:13:52;;;;;;;3.65;2.30;;;;;;;;;;624349;23;1292;-75
2023/07/18 00:14:08;;;;;;;3.37;2.07;;;;;;;;;;622463;23;1279;-75
2023/07/18 00:14:23;;;;;;;3.95;2.20;;;;;;;;;;626107;23;1319;-75
2023/07/18 00:15:03;;;;;;;4.70;2.30;;;;;;;;;;627576;23;1226;-74
2023/07/18 00:15:17;;;;;;;3.67;2.35;;;;;;;;;;625808;23;1416;-75
2023/07/18 00:15:33;;;;;;;3.27;2.27;;;;;;;;;;626294;23;1382;-75
2023/07/18 00:15:48;;;;;;;3.55;2.03;;;;;;;;;;627545;23;796;-75
2023/07/18 00:16:03;;;;;;;3.90;2.03;;;;;;;;;;626342;23;1261;-75
2023/07/18 00:16:18;;;;;;;4.10;2.27;;;;;;;;;;630038;23;756;-75
2023/07/18 00:16:34;;;;;;;4.97;2.47;;;;;;;;;;631240;23;1296;-74
2023/07/18 00:16:49;;;;;;;4.30;2.30;;;;;;;;;;628228;23;1278;-74
2023/07/18 00:17:05;;;;;;;3.30;2.20;;;;;;;;;;628616;23;1053;-75
2023/07/18 00:17:21;;;;;;;3.83;2.35;;;;;;;;;;626787;23;1302;-75
2023/07/18 00:17:49;;;;;;;3.58;2.30;;;;;;;;;;628730;23;1460;-74
2023/07/18 00:18:06;;;;;;;3.45;2.22;;;;;;;;;;626389;23;1020;-75
2023/07/18 00:18:22;;;;;;;3.33;2.22;;;;;;;;;;626875;23;867;-75
2023/07/18 00:19:04;;;;;;;3.47;2.13;;;;;;;;;;628353;23;1646;-75
2023/07/18 00:19:19;;;;;;;3.30;2.10;;;;;;;;;;623571;23;1327;-74
2023/07/18 00:19:40;;;;;;;3.40;2.27;;;;;;;;;;622995;23;1173;-75
2023/07/18 00:19:56;;;;;;;4.15;2.30;;;;;;;;;;618791;23;1368;-75
2023/07/18 00:20:17;;;;;;;4.30;2.40;;;;;;;;;;620530;23;1256;-75
2023/07/18 00:20:36;;;;;;;4.00;2.33;;;;;;;;;;627948;23;1318;-74
2023/07/18 00:20:51;;;;;;;3.80;2.30;;;;;;;;;;628761;23;851;-75
2023/07/18 00:21:07;;;;;;;4.13;2.27;;;;;;;;;;626306;23;1277;-75
2023/07/18 00:21:22;;;;;;;3.58;2.30;;;;;;;;;;623171;23;1441;-75
2023/07/18 00:21:53;;;;;;;2.93;2.20;;;;;;;;;;624213;23;1168;-75
2023/07/18 00:22:08;;;;;;;4.00;2.35;;;;;;;;;;623317;23;1921;-75
2023/07/18 00:22:33;;;;;;;3.87;2.27;;;;;;;;;;625289;23;816;-75
2023/07/18 00:22:50;;;;;;;4.13;2.33;;;;;;;;;;627397;23;954;-75
2023/07/18 00:23:07;;;;;;;4.90;2.30;;;;;;;;;;628034;23;867;-75
2023/07/18 00:23:23;;;;;;;4.78;2.45;;;;;;;;;;626328;23;1484;-75
2023/07/18 00:23:38;;;;;;;4.35;2.42;;;;;;;;;;628566;23;1004;-75
2023/07/18 00:23:54;;;;;;;4.63;2.30;;;;;;;;;;628615;23;1067;-75
2023/07/18 00:24:09;;;;;;;4.00;2.20;;;;;;;;;;628884;23;1339;-75
2023/07/18 00:24:33;;;;;;;3.20;2.23;;;;;;;;;;631409;23;780;-75
2023/07/18 00:25:13;;;;;;;3.65;2.30;;;;;;;;;;630706;23;1366;-75
2023/07/18 00:25:31;;;;;;;3.55;2.20;;;;;;;;;;634980;23;895;-75
2023/07/18 00:25:50;;;;;;;3.28;2.30;;;;;;;;;;634473;23;982;-74
2023/07/18 00:26:06;;;;;;;3.72;2.20;;;;;;;;;;632794;23;1529;-75
2023/07/18 00:26:25;;;;;;;3.13;2.00;;;;;;;;;;630329;23;1302;-75
2023/07/18 00:26:40;;;;;;;3.60;2.13;;;;;;;;;;629756;23;1434;-74
2023/07/18 00:26:59;;;;;;;4.50;2.40;;;;;;;;;;628619;23;1298;-75
2023/07/18 00:27:16;;;;;;;4.68;2.42;;;;;;;;;;625434;23;1286;-75
2023/07/18 00:27:31;;;;;;;3.47;2.30;;;;;;;;;;626487;23;887;-75
2023/07/18 00:28:03;;;;;;;2.83;2.30;;;;;;;;;;627534;23;789;-75
2023/07/18 00:28:21;;;;;;;3.67;2.20;;;;;;;;;;632138;23;887;-75
2023/07/18 00:28:42;;;;;;;4.20;2.35;;;;;;;;;;633560;23;1449;-75
2023/07/18 00:29:01;;;;;;;4.22;2.40;;;;;;;;;;634292;23;1491;-75
2023/07/18 00:29:17;;;;;;;3.97;2.42;;;;;;;;;;633149;23;1390;-74
2023/07/18 00:29:33;;;;;;;3.75;2.30;;;;;;;;;;634993;23;1184;-74
2023/07/18 00:29:48;;;;;;;4.30;2.17;;;;;;;;;;629011;23;1192;-75
2023/07/18 00:30:07;;;;;;;5.50;2.30;;;;;;;;;;628977;23;808;-74
2023/07/18 00:30:22;;;;;;;4.18;2.30;;;;;;;;;;628931;23;922;-75
2023/07/18 00:30:38;;;;;;;4.33;2.20;;;;;;;;;;626178;23;1156;-74
2023/07/18 00:30:53;;;;;;;3.65;2.10;;;;;;;;;;625709;23;901;-75
2023/07/18 00:31:08;;;;;;;3.30;2.20;;;;;;;;;;621700;23;1255;-74
2023/07/18 00:31:30;;;;;;;3.50;2.40;;;;;;;;;;626013;23;1201;-75
2023/07/18 00:31:48;;;;;;;2.83;2.25;;;;;;;;;;627749;23;1382;-74
2023/07/18 00:32:04;;;;;;;2.67;2.00;;;;;;;;;;627687;23;926;-75
2023/07/18 00:32:19;;;;;;;3.67;2.30;;;;;;;;;;624808;23;1156;-74
2023/07/18 00:32:35;;;;;;;4.03;2.20;;;;;;;;;;622635;23;1225;-75
2023/07/18 00:32:56;;;;;;;3.60;2.20;;;;;;;;;;625203;23;894;-75
2023/07/18 00:33:17;;;;;;;5.65;2.10;;;;;;;;;;625512;23;1510;-75
2023/07/18 00:33:33;;;;;;;5.05;2.20;;;;;;;;;;629049;23;1378;-74
2023/07/18 00:33:57;;;;;;;3.90;2.20;;;;;;;;;;631293;23;1294;-75
2023/07/18 00:34:19;;;;;;;3.47;2.10;;;;;;;;;;628968;23;1365;-75
2023/07/18 00:34:34;;;;;;;3.95;2.30;;;;;;;;;;631258;23;1316;-75
2023/07/18 00:34:56;;;;;;;4.40;2.30;;;;;;;;;;630439;23;1193;-75
2023/07/18 00:35:13;;;;;;;3.80;2.38;;;;;;;;;;628139;23;1486;-75
2023/07/18 00:35:34;;;;;;;3.55;2.22;;;;;;;;;;627085;23;1421;-75
2023/07/18 00:35:50;;;;;;;3.20;2.30;;;;;;;;;;629508;23;989;-74
2023/07/18 00:36:06;;;;;;;3.13;2.37;;;;;;;;;;630382;23;986;-75
2023/07/18 00:36:25;;;;;;;3.60;2.40;;;;;;;;;;630883;23;1399;-75
2023/07/18 00:36:40;;;;;;;3.97;2.22;;;;;;;;;;631487;23;1301;-75
2023/07/18 00:36:56;;;;;;;4.03;2.40;;;;;;;;;;632155;23;1266;-75
2023/07/18 00:37:12;;;;;;;3.50;2.30;;;;;;;;;;630078;23;1215;-75
2023/07/18 00:37:27;;;;;;;4.90;2.30;;;;;;;;;;631006;23;827;-75
2023/07/18 00:37:52;;;;;;;5.35;2.40;;;;;;;;;;627203;23;1410;-75
2023/07/18 00:38:07;;;;;;;3.58;2.40;;;;;;;;;;624547;23;1284;-75
2023/07/18 00:38:22;;;;;;;4.10;2.47;;;;;;;;;;626125;23;832;-75
2023/07/18 00:38:38;;;;;;;4.60;2.33;;;;;;;;;;627118;23;1331;-75
2023/07/18 00:38:56;;;;;;;4.40;2.30;;;;;;;;;;630957;23;1397;-75
2023/07/18 00:39:16;;;;;;;3.72;2.30;;;;;;;;;;629938;23;862;-75
2023/07/18 00:39:32;;;;;;;2.90;2.17;;;;;;;;;;628748;23;1231;-74
2023/07/18 00:39:48;;;;;;;3.08;2.00;;;;;;;;;;628808;23;1314;-75
2023/07/18 00:40:10;;;;;;;4.03;2.28;;;;;;;;;;626874;23;1229;-75
2023/07/18 00:40:26;;;;;;;4.07;2.30;;;;;;;;;;628566;23;1370;-75
2023/07/18 00:40:47;;;;;;;3.85;2.20;;;;;;;;;;628392;23;828;-74
2023/07/18 00:41:04;;;;;;;4.05;2.20;;;;;;;;;;628217;23;1532;-74
2023/07/18 00:41:20;;;;;;;3.47;2.30;;;;;;;;;;626813;23;883;-75
2023/07/18 00:41:35;;;;;;;3.37;2.27;;;;;;;;;;628648;23;1313;-74
2023/07/18 00:41:52;;;;;;;4.00;2.30;;;;;;;;;;631245;23;1354;-74
2023/07/18 00:42:07;;;;;;;4.40;2.30;;;;;;;;;;631033;23;1937;-75
2023/07/18 00:42:29;;;;;;;4.15;2.30;;;;;;;;;;628499;23;1303;-75
2023/07/18 00:42:49;;;;;;;4.00;2.25;;;;;;;;;;625257;23;1248;-75
2023/07/18 00:43:12;;;;;;;3.47;2.30;;;;;;;;;;621887;23;1492;-75
2023/07/18 00:43:33;;;;;;;3.35;2.30;;;;;;;;;;622060;23;1475;-75
2023/07/18 00:43:49;;;;;;;3.17;2.17;;;;;;;;;;624753;23;1242;-75
2023/07/18 00:44:05;;;;;;;3.45;2.30;;;;;;;;;;627194;23;1224;-75
2023/07/18 00:44:20;;;;;;;3.43;2.37;;;;;;;;;;630162;23;1321;-75
2023/07/18 00:44:39;;;;;;;4.03;2.30;;;;;;;;;;630903;23;1330;-75
2023/07/18 00:44:57;;;;;;;3.75;2.20;;;;;;;;;;631045;23;856;-74
2023/07/18 00:45:16;;;;;;;3.58;2.25;;;;;;;;;;626458;23;1371;-75
2023/07/18 00:45:34;;;;;;;3.67;2.20;;;;;;;;;;631298;23;1303;-74
2023/07/18 00:45:50;;;;;;;4.18;2.40;;;;;;;;;;631355;23;882;-74
2023/07/18 00:46:08;;;;;;;3.55;2.20;;;;;;;;;;630863;23;1160;-75
2023/07/18 00:46:50;;;;;;;3.10;2.20;;;;;;;;;;634379;23;930;-74
2023/07/18 00:47:07;;;;;;;3.35;2.30;;;;;;;;;;632744;23;1489;-74
2023/07/18 00:47:46;;;;;;;3.45;2.22;;;;;;;;;;635045;23;965;-74
2023/07/18 00:48:01;;;;;;;4.30;2.30;;;;;;;;;;621099;23;888;-75
2023/07/18 00:48:17;;;;;;;3.47;2.20;;;;;;;;;;628173;23;1193;-74
2023/07/18 00:48:44;;;;;;;2.95;2.10;;;;;;;;;;631528;23;1356;-75
2023/07/18 00:49:03;;;;;;;3.63;2.20;;;;;;;;;;629671;23;859;-74
2023/07/18 00:49:18;;;;;;;3.67;2.30;;;;;;;;;;626878;23;1397;-74
2023/07/18 00:49:38;;;;;;;3.05;2.30;;;;;;;;;;628293;23;1160;-75
2023/07/18 00:49:56;;;;;;;3.75;2.25;;;;;;;;;;624043;23;1469;-75
2023/07/18 00:50:14;;;;;;;3.50;2.30;;;;;;;;;;622972;23;1049;-75
2023/07/18 00:50:34;;;;;;;5.00;2.30;;;;;;;;;;626437;23;1382;-75
2023/07/18 00:50:49;;;;;;;4.25;2.30;;;;;;;;;;627921;23;855;-74
2023/07/18 00:51:04;;;;;;;3.53;2.40;;;;;;;;;;630328;23;1359;-74
2023/07/18 00:51:24;;;;;;;3.85;2.40;;;;;;;;;;627026;23;1288;-74
2023/07/18 00:51:48;;;;;;;3.38;2.25;;;;;;;;;;629009;23;874;-75
2023/07/18 00:52:06;;;;;;;5.05;2.40;;;;;;;;;;630268;23;1343;-75
2023/07/18 00:52:22;;;;;;;4.65;2.30;;;;;;;;;;630406;23;1294;-75
2023/07/18 00:52:44;;;;;;;5.03;2.20;;;;;;;;;;628219;23;1216;-75
2023/07/18 00:53:00;;;;;;;4.32;2.33;;;;;;;;;;628201;23;883;-75
2023/07/18 00:53:20;;;;;;;4.10;2.33;;;;;;;;;;627447;23;1441;-75
2023/07/18 00:53:37;;;;;;;3.88;2.40;;;;;;;;;;628600;23;958;-75
2023/07/18 00:53:53;;;;;;;4.38;2.50;;;;;;;;;;627878;23;1403;-74
2023/07/18 00:54:09;;;;;;;4.20;2.30;;;;;;;;;;627221;23;1218;-75
2023/07/18 00:54:33;;;;;;;3.58;2.10;;;;;;;;;;629772;23;872;-75
2023/07/18 00:54:48;;;;;;;4.03;2.30;;;;;;;;;;631438;23;1432;-74
2023/07/18 00:55:05;;;;;;;4.05;2.28;;;;;;;;;;630925;23;768;-75
2023/07/18 00:55:20;;;;;;;5.07;2.45;;;;;;;;;;630555;23;760;-75
2023/07/18 00:55:37;;;;;;;4.25;2.50;;;;;;;;;;631416;23;1090;-75
2023/07/18 00:55:53;;;;;;;2.90;2.20;;;;;;;;;;633411;23;1382;-74
2023/07/18 00:56:09;;;;;;;3.53;2.20;;;;;;;;;;632995;23;1211;-75
2023/07/18 00:56:25;;;;;;;4.30;2.30;;;;;;;;;;630084;23;1388;-74
2023/07/18 00:56:41;;;;;;;4.28;2.25;;;;;;;;;;628360;23;1516;-75
2023/07/18 00:57:03;;;;;;;4.05;2.50;;;;;;;;;;628253;23;1184;-74
2023/07/18 00:57:19;;;;;;;4.43;2.42;;;;;;;;;;625694;23;2231;-74
2023/07/18 00:58:15;;;;;;;4.40;2.47;;;;;;;;;;628435;23;1003;-74
2023/07/18 00:58:31;;;;;;;3.15;2.30;;;;;;;;;;631689;23;1115;-75
2023/07/18 00:58:46;;;;;;;2.70;2.10;;;;;;;;;;631342;23;1243;-75
2023/07/18 00:59:03;;;;;;;2.90;2.07;;;;;;;;;;634145;23;832;-75
2023/07/18 00:59:21;;;;;;;4.00;2.28;;;;;;;;;;636137;23;886;-74
2023/07/18 00:59:43;;;;;;;4.53;2.40;;;;;;;;;;636884;23;1033;-75
2023/07/18 01:00:08;;;;;;;4.07;2.30;;;;;;;;;;634285;23;1582;-75
2023/07/18 01:00:24;;;;;;;3.97;2.50;;;;;;;;;;633517;23;1402;-75
2023/07/18 01:00:40;;;;;;;3.90;2.53;;;;;;;;;;632563;23;1296;-74
2023/07/18 01:00:56;;;;;;;4.03;2.30;;;;;;;;;;630469;23;1456;-75
2023/07/18 01:01:17;;;;;;;3.72;2.20;;;;;;;;;;626755;23;1417;-75
2023/07/18 01:01:36;;;;;;;4.07;2.20;;;;;;;;;;627789;23;1338;-75
2023/07/18 01:01:52;;;;;;;4.80;2.35;;;;;;;;;;627652;23;1425;-75
2023/07/18 01:02:09;;;;;;;3.78;2.28;;;;;;;;;;630257;23;1980;-75
2023/07/18 01:02:24;;;;;;;3.80;2.30;;;;;;;;;;630845;23;1299;-75
2023/07/18 01:02:51;;;;;;;5.03;2.40;;;;;;;;;;631938;23;1199;-75
2023/07/18 01:03:06;;;;;;;4.30;2.13;;;;;;;;;;627682;23;1366;-75
2023/07/18 01:03:22;;;;;;;4.05;2.30;;;;;;;;;;627161;23;812;-75
2023/07/18 01:03:46;;;;;;;3.77;2.50;;;;;;;;;;628010;23;1231;-75
2023/07/18 01:04:02;;;;;;;3.85;2.20;;;;;;;;;;623293;23;1358;-74
2023/07/18 01:04:29;;;;;;;4.82;2.33;;;;;;;;;;625445;23;941;-75
2023/07/18 01:04:47;;;;;;;3.85;2.33;;;;;;;;;;628998;23;1311;-75
2023/07/18 01:05:03;;;;;;;4.93;2.40;;;;;;;;;;628744;23;1203;-74
2023/07/18 01:05:20;;;;;;;5.10;2.53;;;;;;;;;;630194;23;843;-75
2023/07/18 01:05:39;;;;;;;4.57;2.35;;;;;;;;;;627927;23;1385;-74
2023/07/18 01:05:54;;;;;;;4.10;2.20;;;;;;;;;;626125;23;1283;-74
2023/07/18 01:06:10;;;;;;;3.80;2.27;;;;;;;;;;625993;23;1186;-75
2023/07/18 01:06:25;;;;;;;3.75;2.20;;;;;;;;;;624075;23;1412;-75
2023/07/18 01:06:41;;;;;;;4.27;2.23;;;;;;;;;;623504;23;1161;-75
2023/07/18 01:06:56;;;;;;;4.18;2.42;;;;;;;;;;623504;23;1191;-74
2023/07/18 01:07:21;;;;;;;4.43;2.47;;;;;;;;;;626700;23;1275;-75
2023/07/18 01:07:40;;;;;;;4.63;2.40;;;;;;;;;;628071;23;1466;-75
2023/07/18 01:07:56;;;;;;;4.40;2.30;;;;;;;;;;624269;23;1260;-74
2023/07/18 01:08:15;;;;;;;3.92;2.40;;;;;;;;;;625976;23;1313;-75
2023/07/18 01:08:30;;;;;;;3.90;2.22;;;;;;;;;;626469;23;1433;-75
2023/07/18 01:08:48;;;;;;;4.10;2.20;;;;;;;;;;628969;23;1246;-75
2023/07/18 01:09:05;;;;;;;4.57;2.40;;;;;;;;;;628481;23;1155;-75
2023/07/18 01:09:20;;;;;;;4.13;2.45;;;;;;;;;;630570;23;1759;-75
2023/07/18 01:09:39;;;;;;;3.27;2.33;;;;;;;;;;633633;23;1349;-75
2023/07/18 01:10:24;;;;;;;4.20;2.50;;;;;;;;;;630841;23;1533;-75
2023/07/18 01:10:40;;;;;;;3.42;2.30;;;;;;;;;;633114;23;898;-75
2023/07/18 01:11:16;;;;;;;3.88;2.35;;;;;;;;;;630482;23;1234;-75
2023/07/18 01:11:37;;;;;;;3.30;2.10;;;;;;;;;;622572;23;1253;-75
2023/07/18 01:11:52;;;;;;;2.90;2.15;;;;;;;;;;633659;23;1364;-75
2023/07/18 01:12:08;;;;;;;3.47;2.20;;;;;;;;;;636160;23;791;-75
2023/07/18 01:12:23;;;;;;;3.95;2.30;;;;;;;;;;634161;23;1206;-75
2023/07/18 01:12:39;;;;;;;4.90;2.40;;;;;;;;;;631919;23;1277;-75
2023/07/18 01:13:02;;;;;;;4.88;2.40;;;;;;;;;;630464;23;1199;-75
2023/07/18 01:13:17;;;;;;;4.07;2.33;;;;;;;;;;629881;23;958;-74
2023/07/18 01:13:53;;;;;;;4.17;2.50;;;;;;;;;;630649;23;1355;-75
2023/07/18 01:14:09;;;;;;;4.13;2.40;;;;;;;;;;628118;23;1161;-75
2023/07/18 01:14:25;;;;;;;4.40;2.50;;;;;;;;;;629738;23;807;-74
2023/07/18 01:14:41;;;;;;;4.13;2.60;;;;;;;;;;633350;23;844;-75
2023/07/18 01:14:56;;;;;;;3.70;2.50;;;;;;;;;;636433;23;828;-75
2023/07/18 01:15:17;;;;;;;3.80;2.50;;;;;;;;;;635385;23;878;-74
2023/07/18 01:15:33;;;;;;;4.78;2.30;;;;;;;;;;634675;23;1311;-75
2023/07/18 01:16:09;;;;;;;4.03;2.33;;;;;;;;;;634151;23;1358;-74
2023/07/18 01:16:27;;;;;;;3.50;2.25;;;;;;;;;;632902;23;1510;-75
2023/07/18 01:16:43;;;;;;;4.10;2.40;;;;;;;;;;630049;23;1452;-75
2023/07/18 01:16:58;;;;;;;4.00;2.45;;;;;;;;;;628451;23;990;-75
2023/07/18 01:17:14;;;;;;;3.00;2.10;;;;;;;;;;629604;23;909;-74
2023/07/18 01:17:30;;;;;;;3.70;2.40;;;;;;;;;;629097;23;1288;-75
2023/07/18 01:17:46;;;;;;;4.18;2.55;;;;;;;;;;628948;23;989;-75
2023/07/18 01:18:02;;;;;;;3.88;2.30;;;;;;;;;;627262;23;1465;-75
2023/07/18 01:18:18;;;;;;;3.40;2.10;;;;;;;;;;624429;23;991;-75
2023/07/18 01:18:34;;;;;;;4.82;2.40;;;;;;;;;;626969;23;958;-75
2023/07/18 01:18:52;;;;;;;5.50;2.60;;;;;;;;;;627435;23;1172;-75
2023/07/18 01:19:08;;;;;;;4.45;2.40;;;;;;;;;;627163;23;1247;-75
2023/07/18 01:19:24;;;;;;;4.07;2.20;;;;;;;;;;627648;23;1255;-75
2023/07/18 01:19:39;;;;;;;3.20;2.10;;;;;;;;;;626968;23;1342;-75
2023/07/18 01:19:55;;;;;;;4.05;2.20;;;;;;;;;;629869;23;1310;-75
2023/07/18 01:20:21;;;;;;;4.80;2.50;;;;;;;;;;627651;23;1392;-75
2023/07/18 01:20:36;;;;;;;4.40;2.38;;;;;;;;;;634428;23;1230;-75
2023/07/18 01:20:54;;;;;;;4.50;2.30;;;;;;;;;;637924;23;968;-74
2023/07/18 01:21:17;;;;;;;4.47;2.20;;;;;;;;;;633272;23;1229;-75
2023/07/18 01:21:32;;;;;;;3.17;2.28;;;;;;;;;;630841;23;1219;-74
2023/07/18 01:21:48;;;;;;;3.17;2.33;;;;;;;;;;630716;23;989;-75
2023/07/18 01:22:04;;;;;;;3.28;2.40;;;;;;;;;;628409;23;1964;-75
2023/07/18 01:22:25;;;;;;;3.23;2.30;;;;;;;;;;627408;23;955;-75
2023/07/18 01:22:40;;;;;;;3.75;2.30;;;;;;;;;;626151;23;1366;-75
2023/07/18 01:22:58;;;;;;;3.60;2.30;;;;;;;;;;628898;23;969;-75
2023/07/18 01:23:13;;;;;;;4.63;2.30;;;;;;;;;;628994;23;1422;-75
2023/07/18 01:23:32;;;;;;;4.65;2.40;;;;;;;;;;629708;23;1382;-74
2023/07/18 01:23:47;;;;;;;4.40;2.60;;;;;;;;;;630946;23;874;-75
2023/07/18 01:24:03;;;;;;;4.32;2.35;;;;;;;;;;630539;23;1412;-75
2023/07/18 01:24:22;;;;;;;3.72;2.20;;;;;;;;;;629351;23;870;-74
2023/07/18 01:24:37;;;;;;;3.80;2.30;;;;;;;;;;627728;23;1299;-75
2023/07/18 01:24:53;;;;;;;4.97;2.47;;;;;;;;;;627678;23;1120;-75
2023/07/18 01:25:11;;;;;;;4.80;2.30;;;;;;;;;;629378;23;1349;-75
2023/07/18 01:25:31;;;;;;;3.47;2.17;;;;;;;;;;628784;23;1478;-75
2023/07/18 01:25:59;;;;;;;3.30;2.20;;;;;;;;;;624415;23;1586;-75
2023/07/18 01:26:18;;;;;;;5.50;2.35;;;;;;;;;;625835;23;1438;-75
2023/07/18 01:26:33;;;;;;;4.40;2.13;;;;;;;;;;628499;23;1420;-75
2023/07/18 01:26:57;;;;;;;4.07;2.25;;;;;;;;;;629458;23;910;-75
2023/07/18 01:27:22;;;;;;;3.55;2.38;;;;;;;;;;629158;23;1523;-75
2023/07/18 01:27:41;;;;;;;3.63;2.20;;;;;;;;;;627933;23;873;-75
2023/07/18 01:28:16;;;;;;;4.22;2.42;;;;;;;;;;628643;23;1315;-74
2023/07/18 01:28:55;;;;;;;4.07;2.35;;;;;;;;;;627024;23;1577;-75
2023/07/18 01:29:11;;;;;;;4.10;2.38;;;;;;;;;;616696;23;1106;-75
2023/07/18 01:29:56;;;;;;;3.70;2.50;;;;;;;;;;624763;23;1177;-75
2023/07/18 01:30:20;;;;;;;3.97;2.22;;;;;;;;;;617217;23;1354;-75
2023/07/18 01:30:35;;;;;;;3.67;2.25;;;;;;;;;;613021;23;1513;-75
2023/07/18 01:30:51;;;;;;;3.80;2.15;;;;;;;;;;609886;24;1671;-74
2023/07/18 01:31:06;;;;;;;3.77;2.27;;;;;;;;;;619090;23;1321;-75
2023/07/18 01:31:32;;;;;;;3.88;2.30;;;;;;;;;;629605;23;998;-75
2023/07/18 01:31:53;;;;;;;3.30;2.45;;;;;;;;;;626396;23;1386;-75
2023/07/18 01:32:09;;;;;;;3.97;2.47;;;;;;;;;;628907;23;1266;-75
2023/07/18 01:32:34;;;;;;;4.40;2.23;;;;;;;;;;630712;23;1057;-75
2023/07/18 01:32:56;;;;;;;5.22;2.35;;;;;;;;;;630335;23;986;-74
2023/07/18 01:33:11;;;;;;;5.00;2.65;;;;;;;;;;633201;23;1379;-75
2023/07/18 01:33:29;;;;;;;4.47;2.50;;;;;;;;;;634111;23;1159;-75
2023/07/18 01:33:47;;;;;;;3.78;2.35;;;;;;;;;;630672;23;1290;-75
2023/07/18 01:34:04;;;;;;;3.85;2.50;;;;;;;;;;626997;23;1305;-74
2023/07/18 01:34:25;;;;;;;3.90;2.53;;;;;;;;;;626576;23;875;-75
2023/07/18 01:34:40;;;;;;;3.70;2.42;;;;;;;;;;627050;23;1606;-75
2023/07/18 01:34:56;;;;;;;3.53;2.30;;;;;;;;;;631753;23;1184;-75
2023/07/18 01:35:11;;;;;;;4.00;2.45;;;;;;;;;;629378;23;1218;-74
2023/07/18 01:35:27;;;;;;;3.63;2.53;;;;;;;;;;631111;23;996;-75
2023/07/18 01:35:51;;;;;;;3.40;2.22;;;;;;;;;;630642;23;854;-75
2023/07/18 01:36:07;;;;;;;4.50;2.28;;;;;;;;;;633536;23;1172;-75
2023/07/18 01:36:29;;;;;;;3.87;2.30;;;;;;;;;;629710;23;1297;-75
2023/07/18 01:36:52;;;;;;;4.43;2.30;;;;;;;;;;631102;23;1549;-75
2023/07/18 01:37:08;;;;;;;4.47;2.40;;;;;;;;;;632488;23;886;-75
2023/07/18 01:37:26;;;;;;;3.67;2.40;;;;;;;;;;632334;23;819;-75
2023/07/18 01:37:50;;;;;;;4.00;2.45;;;;;;;;;;628747;23;1444;-75
2023/07/18 01:38:05;;;;;;;5.22;2.40;;;;;;;;;;629314;23;1501;-74
2023/07/18 01:38:21;;;;;;;3.88;2.30;;;;;;;;;;631272;23;811;-75
2023/07/18 01:38:36;;;;;;;3.17;2.30;;;;;;;;;;632053;23;1263;-74
2023/07/18 01:38:51;;;;;;;3.00;2.23;;;;;;;;;;633429;23;1281;-74
2023/07/18 01:39:08;;;;;;;3.60;2.30;;;;;;;;;;630338;23;1214;-75
2023/07/18 01:39:26;;;;;;;4.05;2.40;;;;;;;;;;631149;23;815;-74
2023/07/18 01:39:45;;;;;;;4.03;2.50;;;;;;;;;;626814;23;1405;-74
2023/07/18 01:40:08;;;;;;;3.55;2.33;;;;;;;;;;626992;23;1252;-75
2023/07/18 01:40:24;;;;;;;3.92;2.40;;;;;;;;;;627615;23;1427;-74
2023/07/18 01:40:39;;;;;;;4.47;2.40;;;;;;;;;;628080;23;1300;-75
2023/07/18 01:40:56;;;;;;;4.60;2.58;;;;;;;;;;628553;23;1280;-74
2023/07/18 01:41:11;;;;;;;4.40;2.70;;;;;;;;;;629037;23;1373;-74
2023/07/18 01:41:27;;;;;;;4.43;2.60;;;;;;;;;;631006;23;1291;-74
2023/07/18 01:41:42;;;;;;;3.87;2.27;;;;;;;;;;628788;23;752;-74
2023/07/18 01:41:57;;;;;;;4.22;2.35;;;;;;;;;;629499;23;1273;-75
2023/07/18 01:42:16;;;;;;;4.80;2.50;;;;;;;;;;628912;23;1912;-75
2023/07/18 01:42:32;;;;;;;4.45;2.65;;;;;;;;;;626486;23;1264;-74
2023/07/18 01:42:56;;;;;;;3.30;2.35;;;;;;;;;;625505;23;1391;-75
2023/07/18 01:43:12;;;;;;;4.20;2.35;;;;;;;;;;620309;23;1414;-74
2023/07/18 01:43:27;;;;;;;3.95;2.53;;;;;;;;;;624463;23;868;-74
2023/07/18 01:43:43;;;;;;;4.15;2.42;;;;;;;;;;621929;23;1299;-74
2023/07/18 01:44:08;;;;;;;4.97;2.33;;;;;;;;;;624344;23;1243;-75
2023/07/18 01:44:23;;;;;;;3.53;2.35;;;;;;;;;;626692;23;1385;-75
2023/07/18 01:44:39;;;;;;;3.65;2.20;;;;;;;;;;627006;23;1440;-75
2023/07/18 01:44:54;;;;;;;4.97;2.60;;;;;;;;;;623113;23;1200;-75
2023/07/18 01:45:10;;;;;;;5.05;2.67;;;;;;;;;;623311;23;1310;-76
2023/07/18 01:45:29;;;;;;;4.53;2.60;;;;;;;;;;624740;23;824;-75
2023/07/18 01:45:47;;;;;;;3.88;2.50;;;;;;;;;;625552;23;1358;-76
2023/07/18 01:46:03;;;;;;;4.03;2.40;;;;;;;;;;621704;23;1394;-75
2023/07/18 01:46:18;;;;;;;3.77;2.43;;;;;;;;;;623439;23;1173;-75
2023/07/18 01:46:42;;;;;;;5.25;2.58;;;;;;;;;;626683;23;883;-75
2023/07/18 01:47:03;;;;;;;4.28;2.45;;;;;;;;;;628031;23;1197;-75
2023/07/18 01:47:22;;;;;;;4.30;2.55;;;;;;;;;;629637;23;879;-75
2023/07/18 01:47:39;;;;;;;3.92;2.70;;;;;;;;;;632064;23;1316;-74
2023/07/18 01:48:03;;;;;;;4.18;2.65;;;;;;;;;;633322;23;1065;-74
2023/07/18 01:48:19;;;;;;;4.72;2.40;;;;;;;;;;631949;23;898;-75
2023/07/18 01:48:38;;;;;;;4.22;2.40;;;;;;;;;;634009;23;1222;-74
2023/07/18 01:48:53;;;;;;;3.75;2.40;;;;;;;;;;632089;23;878;-75
2023/07/18 01:49:09;;;;;;;4.40;2.40;;;;;;;;;;629212;23;1196;-76
2023/07/18 01:49:24;;;;;;;4.17;2.30;;;;;;;;;;628885;23;1325;-75
2023/07/18 01:49:45;;;;;;;4.43;2.50;;;;;;;;;;626882;23;1259;-75
2023/07/18 01:50:03;;;;;;;4.70;2.63;;;;;;;;;;628035;23;816;-75
2023/07/18 01:50:21;;;;;;;4.72;2.40;;;;;;;;;;626389;23;1271;-75
2023/07/18 01:50:38;;;;;;;4.63;2.50;;;;;;;;;;626326;23;1399;-75
2023/07/18 01:50:57;;;;;;;3.58;2.38;;;;;;;;;;624407;23;1246;-75
2023/07/18 01:51:15;;;;;;;4.20;2.40;;;;;;;;;;627300;23;1344;-74
2023/07/18 01:51:31;;;;;;;4.43;2.50;;;;;;;;;;626801;23;1346;-74
2023/07/18 01:51:47;;;;;;;4.27;2.40;;;;;;;;;;632471;23;851;-75
2023/07/18 01:52:05;;;;;;;3.63;2.35;;;;;;;;;;626911;23;1175;-75
2023/07/18 01:52:20;;;;;;;4.05;2.22;;;;;;;;;;622851;23;1469;-75
2023/07/18 01:52:41;;;;;;;5.00;2.20;;;;;;;;;;622863;23;1208;-75
2023/07/18 01:53:00;;;;;;;5.07;2.50;;;;;;;;;;624747;23;1411;-75
2023/07/18 01:53:15;;;;;;;4.90;2.45;;;;;;;;;;623097;23;1279;-75
2023/07/18 01:53:34;;;;;;;3.80;2.50;;;;;;;;;;627854;23;1306;-74
2023/07/18 01:53:49;;;;;;;4.25;2.40;;;;;;;;;;628562;23;1505;-75
2023/07/18 01:54:05;;;;;;;4.18;2.45;;;;;;;;;;626939;23;1054;-74
2023/07/18 01:54:41;;;;;;;4.10;2.43;;;;;;;;;;623543;23;1224;-74
2023/07/18 01:55:00;;;;;;;3.15;2.10;;;;;;;;;;623288;23;1245;-75
2023/07/18 01:55:16;;;;;;;5.22;2.42;;;;;;;;;;623086;23;1474;-75
2023/07/18 01:55:32;;;;;;;5.72;2.78;;;;;;;;;;627822;23;1034;-75